Time;durP1;ratioP1;P1;durP2;ratioP2;P2;SDS_P1;SDS_P2;PMS_P1;PMS_P2;Temp;Humidity;BMP_temperature;BMP_pressure;BME280_temperature;BME280_humidity;BME280_pressure;Samples;Min_cycle;Max_cycle;Signal;HPM_P1;HPM_P2
2022/03/31 00:00:54;;;;;;;30.47;18.53;;;;;;;;;;2077353;28;20223;-57
2022/03/31 00:01:54;;;;;;;24.43;17.87;;;;;;;;;;2073146;28;20173;-54
2022/03/31 00:02:55;;;;;;;29.70;17.83;;;;;;;;;;2074247;28;20235;-57
2022/03/31 00:03:55;;;;;;;29.33;17.97;;;;;;;;;;2076650;28;20267;-55
2022/03/31 00:04:56;;;;;;;25.43;17.90;;;;;;;;;;2081919;28;20634;-58
2022/03/31 00:05:56;;;;;;;25.30;18.77;;;;;;;;;;2083591;28;20713;-58
2022/03/31 00:06:56;;;;;;;30.03;19.03;;;;;;;;;;2081371;28;20546;-59
2022/03/31 00:07:58;;;;;;;25.00;18.27;;;;;;;;;;2083930;28;20164;-58
2022/03/31 00:08:58;;;;;;;25.80;17.83;;;;;;;;;;2080331;28;20176;-58
2022/03/31 00:09:58;;;;;;;26.67;18.50;;;;;;;;;;2075667;28;20169;-57
2022/03/31 00:10:58;;;;;;;28.20;18.90;;;;;;;;;;2072611;28;20174;-58
2022/03/31 00:11:59;;;;;;;25.40;19.13;;;;;;;;;;2071817;28;20176;-58
2022/03/31 00:13:00;;;;;;;31.10;18.37;;;;;;;;;;2077167;28;20219;-58
2022/03/31 00:14:00;;;;;;;24.33;17.73;;;;;;;;;;2081542;28;20716;-59
2022/03/31 00:15:00;;;;;;;25.40;17.93;;;;;;;;;;2071864;28;20165;-62
2022/03/31 00:16:00;;;;;;;24.43;18.43;;;;;;;;;;2075623;28;20196;-59
2022/03/31 00:17:01;;;;;;;27.10;18.03;;;;;;;;;;2085559;28;20180;-58
2022/03/31 00:18:02;;;;;;;26.40;17.83;;;;;;;;;;2085295;28;20187;-60
2022/03/31 00:19:04;;;;;;;25.10;17.90;;;;;;;;;;2082283;28;20169;-57
2022/03/31 00:20:05;;;;;;;27.03;18.07;;;;;;;;;;2078691;28;20165;-60
2022/03/31 00:21:05;;;;;;;26.37;18.53;;;;;;;;;;2082020;28;20188;-59
2022/03/31 00:22:05;;;;;;;28.97;18.60;;;;;;;;;;2085001;28;20258;-60
2022/03/31 00:23:05;;;;;;;24.53;18.93;;;;;;;;;;2069283;28;20289;-58
2022/03/31 00:24:07;;;;;;;24.77;17.97;;;;;;;;;;2066504;28;20233;-58
2022/03/31 00:25:08;;;;;;;24.30;17.97;;;;;;;;;;2081111;28;20180;-58
2022/03/31 00:26:08;;;;;;;29.00;18.57;;;;;;;;;;2077082;28;20168;-58
2022/03/31 00:27:08;;;;;;;26.27;18.63;;;;;;;;;;2079700;28;20643;-58
2022/03/31 00:28:09;;;;;;;27.23;18.73;;;;;;;;;;2084303;28;20593;-57
2022/03/31 00:29:10;;;;;;;30.33;18.90;;;;;;;;;;2083564;28;20176;-57
2022/03/31 00:30:13;;;;;;;26.00;17.53;;;;;;;;;;2074214;28;20185;-57
2022/03/31 00:31:13;;;;;;;27.27;18.97;;;;;;;;;;2066399;28;20174;-58
2022/03/31 00:32:13;;;;;;;24.90;18.27;;;;;;;;;;2077372;28;20251;-59
2022/03/31 00:33:13;;;;;;;26.60;18.60;;;;;;;;;;2077902;28;20188;-59
2022/03/31 00:34:14;;;;;;;26.33;17.07;;;;;;;;;;2078092;28;20219;-60
2022/03/31 00:35:14;;;;;;;25.93;18.30;;;;;;;;;;2084043;28;20591;-54
2022/03/31 00:36:15;;;;;;;24.50;18.60;;;;;;;;;;2077808;28;20185;-57
2022/03/31 00:37:15;;;;;;;24.27;17.83;;;;;;;;;;2076169;28;20165;-55
2022/03/31 00:38:15;;;;;;;24.07;17.60;;;;;;;;;;2076581;28;20655;-57
2022/03/31 00:39:34;;;;;;;24.37;18.23;;;;;;;;;;2066330;28;20193;-58
2022/03/31 00:40:34;;;;;;;29.13;18.57;;;;;;;;;;2074625;28;20666;-57
2022/03/31 00:41:37;;;;;;;26.23;18.40;;;;;;;;;;2082431;28;20207;-56
2022/03/31 00:42:40;;;;;;;24.93;16.67;;;;;;;;;;2082161;28;20211;-60
2022/03/31 00:43:40;;;;;;;23.73;16.50;;;;;;;;;;2082584;28;20180;-58
2022/03/31 00:44:40;;;;;;;27.17;17.43;;;;;;;;;;2075552;28;20205;-57
2022/03/31 00:45:47;;;;;;;27.30;17.23;;;;;;;;;;2082889;28;20187;-56
2022/03/31 00:46:49;;;;;;;28.70;18.43;;;;;;;;;;2076362;28;20525;-59
2022/03/31 00:47:49;;;;;;;26.03;17.67;;;;;;;;;;2077914;28;20673;-60
2022/03/31 00:48:50;;;;;;;23.37;17.20;;;;;;;;;;2068804;28;20169;-58
2022/03/31 00:49:50;;;;;;;25.63;17.07;;;;;;;;;;2073502;28;20268;-57
2022/03/31 00:50:50;;;;;;;24.80;17.63;;;;;;;;;;2082189;28;20200;-58
2022/03/31 00:51:52;;;;;;;31.60;18.10;;;;;;;;;;2081541;28;20732;-58
2022/03/31 00:52:52;;;;;;;23.40;17.30;;;;;;;;;;2081048;28;20176;-60
2022/03/31 00:53:53;;;;;;;29.67;18.07;;;;;;;;;;2071098;28;20264;-57
2022/03/31 00:54:53;;;;;;;26.93;18.07;;;;;;;;;;2060124;28;20214;-58
2022/03/31 00:55:54;;;;;;;25.17;18.00;;;;;;;;;;2068372;28;20177;-59
2022/03/31 00:56:56;;;;;;;24.90;18.13;;;;;;;;;;2079456;28;20258;-60
2022/03/31 00:57:56;;;;;;;28.93;18.93;;;;;;;;;;2078835;28;20185;-60
2022/03/31 00:58:56;;;;;;;29.27;18.43;;;;;;;;;;2069242;28;20197;-58
2022/03/31 00:59:57;;;;;;;26.10;17.53;;;;;;;;;;2073375;28;20320;-59
2022/03/31 01:00:57;;;;;;;25.43;17.27;;;;;;;;;;2075147;28;20587;-59
2022/03/31 01:01:59;;;;;;;29.13;17.67;;;;;;;;;;2075815;28;20185;-58
2022/03/31 01:02:59;;;;;;;27.10;17.73;;;;;;;;;;2081527;28;20191;-59
2022/03/31 01:04:03;;;;;;;23.80;17.93;;;;;;;;;;2078622;28;20233;-58
2022/03/31 01:05:04;;;;;;;25.23;17.80;;;;;;;;;;2077461;28;20269;-60
2022/03/31 01:06:05;;;;;;;24.70;17.77;;;;;;;;;;2080393;28;20169;-59
2022/03/31 01:07:06;;;;;;;24.50;18.33;;;;;;;;;;2067500;28;20272;-60
2022/03/31 01:08:06;;;;;;;21.90;16.73;;;;;;;;;;2071695;28;20220;-59
2022/03/31 01:09:06;;;;;;;24.50;17.90;;;;;;;;;;2084393;28;20207;-58
2022/03/31 01:10:08;;;;;;;25.37;17.13;;;;;;;;;;2080779;28;20169;-58
2022/03/31 01:11:08;;;;;;;24.80;17.70;;;;;;;;;;2081434;28;20183;-57
2022/03/31 01:12:08;;;;;;;24.03;17.43;;;;;;;;;;2082823;28;20172;-59
2022/03/31 01:13:09;;;;;;;23.13;16.23;;;;;;;;;;2080999;28;20546;-59
2022/03/31 01:14:10;;;;;;;23.43;17.70;;;;;;;;;;2081522;28;20201;-59
2022/03/31 01:15:17;;;;;;;25.43;17.70;;;;;;;;;;2079966;28;20657;-58
2022/03/31 01:16:17;;;;;;;25.20;17.97;;;;;;;;;;2079132;28;20181;-57
2022/03/31 01:17:18;;;;;;;23.33;17.43;;;;;;;;;;2080433;28;20588;-58
2022/03/31 01:18:18;;;;;;;25.30;17.27;;;;;;;;;;2079301;28;20165;-59
2022/03/31 01:19:18;;;;;;;23.70;17.47;;;;;;;;;;2079528;28;20176;-59
2022/03/31 01:20:20;;;;;;;22.60;17.50;;;;;;;;;;2084633;28;20187;-57
2022/03/31 01:21:20;;;;;;;23.63;16.23;;;;;;;;;;2077844;28;20566;-58
2022/03/31 01:22:23;;;;;;;27.10;16.77;;;;;;;;;;2076986;28;20188;-60
2022/03/31 01:23:24;;;;;;;24.13;15.93;;;;;;;;;;2085081;28;20208;-60
2022/03/31 01:24:24;;;;;;;23.70;16.93;;;;;;;;;;2085938;28;20668;-58
2022/03/31 01:25:25;;;;;;;24.33;16.47;;;;;;;;;;2080874;28;20164;-61
2022/03/31 01:26:25;;;;;;;22.03;16.03;;;;;;;;;;2069937;28;20205;-61
2022/03/31 01:27:25;;;;;;;22.57;16.27;;;;;;;;;;2062067;28;20206;-57
2022/03/31 01:28:25;;;;;;;26.27;16.63;;;;;;;;;;2075989;28;20177;-60
2022/03/31 01:29:27;;;;;;;24.00;16.80;;;;;;;;;;2086216;28;20220;-60
2022/03/31 01:30:27;;;;;;;21.37;15.23;;;;;;;;;;2078213;28;20177;-58
2022/03/31 01:31:27;;;;;;;27.27;17.00;;;;;;;;;;2075449;28;20649;-58
2022/03/31 01:32:27;;;;;;;20.70;15.17;;;;;;;;;;2079863;28;20169;-57
2022/03/31 01:33:28;;;;;;;22.53;16.27;;;;;;;;;;2086931;28;20180;-58
2022/03/31 01:34:28;;;;;;;21.70;16.07;;;;;;;;;;2079434;28;20212;-57
2022/03/31 01:35:29;;;;;;;24.10;16.00;;;;;;;;;;2085044;28;20196;-57
2022/03/31 01:36:29;;;;;;;21.10;15.00;;;;;;;;;;2083632;28;20177;-58
2022/03/31 01:37:29;;;;;;;21.93;16.20;;;;;;;;;;2078958;28;20180;-60
2022/03/31 01:38:30;;;;;;;21.30;15.70;;;;;;;;;;2084072;28;20191;-58
2022/03/31 01:39:30;;;;;;;21.37;15.13;;;;;;;;;;2086957;28;20188;-60
2022/03/31 01:40:31;;;;;;;22.20;15.47;;;;;;;;;;2075657;28;20173;-58
2022/03/31 01:41:31;;;;;;;21.47;15.80;;;;;;;;;;2068380;28;20666;-58
2022/03/31 01:42:32;;;;;;;21.60;16.07;;;;;;;;;;2067436;28;20178;-58
2022/03/31 01:43:32;;;;;;;20.93;14.50;;;;;;;;;;2084048;28;20212;-58
2022/03/31 01:44:32;;;;;;;22.00;16.27;;;;;;;;;;2083867;28;20188;-58
2022/03/31 01:45:33;;;;;;;22.43;16.10;;;;;;;;;;2083934;28;20191;-58
2022/03/31 01:46:33;;;;;;;21.63;15.90;;;;;;;;;;2079827;28;20173;-58
2022/03/31 01:47:34;;;;;;;20.93;15.40;;;;;;;;;;2076262;28;20235;-57
2022/03/31 01:48:34;;;;;;;22.67;16.10;;;;;;;;;;2084420;28;20188;-60
2022/03/31 01:49:35;;;;;;;19.93;15.70;;;;;;;;;;2081923;28;20642;-58
2022/03/31 01:50:35;;;;;;;20.63;14.90;;;;;;;;;;2086231;28;20553;-59
2022/03/31 01:51:36;;;;;;;22.27;15.97;;;;;;;;;;2085150;28;20523;-56
2022/03/31 01:52:36;;;;;;;20.20;15.77;;;;;;;;;;2077506;28;20169;-59
2022/03/31 01:53:38;;;;;;;21.03;16.00;;;;;;;;;;2075718;28;20228;-58
2022/03/31 01:54:38;;;;;;;24.40;15.77;;;;;;;;;;2072173;28;20718;-57
2022/03/31 01:55:40;;;;;;;19.87;14.43;;;;;;;;;;2071050;28;20178;-58
2022/03/31 01:56:41;;;;;;;21.80;14.30;;;;;;;;;;2093113;28;20198;-58
2022/03/31 01:57:42;;;;;;;21.50;14.57;;;;;;;;;;2087193;28;20182;-58
2022/03/31 01:58:42;;;;;;;20.43;15.47;;;;;;;;;;2093798;28;20187;-59
2022/03/31 01:59:42;;;;;;;21.53;14.63;;;;;;;;;;2087913;28;20176;-59
2022/03/31 02:00:43;;;;;;;19.37;14.30;;;;;;;;;;2088757;28;20207;-58
2022/03/31 02:01:43;;;;;;;18.23;14.50;;;;;;;;;;2086445;28;20165;-58
2022/03/31 02:02:43;;;;;;;23.50;15.53;;;;;;;;;;2083031;28;20211;-63
2022/03/31 02:03:44;;;;;;;21.30;15.33;;;;;;;;;;2068616;28;20765;-54
2022/03/31 02:04:44;;;;;;;18.20;14.27;;;;;;;;;;2072151;28;20273;-54
2022/03/31 02:05:44;;;;;;;19.23;14.23;;;;;;;;;;2067275;28;20236;-55
2022/03/31 02:06:45;;;;;;;16.70;14.13;;;;;;;;;;2068114;28;20173;-57
2022/03/31 02:07:45;;;;;;;22.27;14.93;;;;;;;;;;2075717;28;20596;-57
2022/03/31 02:08:46;;;;;;;20.63;15.03;;;;;;;;;;2082294;28;20251;-57
2022/03/31 02:09:46;;;;;;;17.87;13.97;;;;;;;;;;2072265;28;20173;-57
2022/03/31 02:10:46;;;;;;;19.03;13.57;;;;;;;;;;2068883;28;20189;-56
2022/03/31 02:11:46;;;;;;;19.47;14.07;;;;;;;;;;2074547;28;20299;-54
2022/03/31 02:12:49;;;;;;;17.77;14.20;;;;;;;;;;2077273;28;20176;-52
2022/03/31 02:13:49;;;;;;;16.17;13.87;;;;;;;;;;2079998;28;20250;-58
2022/03/31 02:14:50;;;;;;;20.93;14.77;;;;;;;;;;2096312;22;20558;-61
2022/03/31 02:15:51;;;;;;;20.53;14.33;;;;;;;;;;2089303;28;20179;-62
2022/03/31 02:16:51;;;;;;;17.67;13.17;;;;;;;;;;2086308;28;20168;-62
2022/03/31 02:17:52;;;;;;;19.40;13.23;;;;;;;;;;2103965;28;20183;-66
2022/03/31 02:18:53;;;;;;;16.47;13.80;;;;;;;;;;2100186;28;20197;-60
2022/03/31 02:19:53;;;;;;;21.80;13.93;;;;;;;;;;2105556;28;20186;-60
2022/03/31 02:20:53;;;;;;;19.13;14.07;;;;;;;;;;2089757;28;20270;-61
2022/03/31 02:21:55;;;;;;;16.43;13.23;;;;;;;;;;2091928;28;20171;-59
2022/03/31 02:22:55;;;;;;;17.00;13.20;;;;;;;;;;2091126;28;20211;-61
2022/03/31 02:23:56;;;;;;;19.40;14.37;;;;;;;;;;2102343;28;20223;-63
2022/03/31 02:24:56;;;;;;;18.03;13.27;;;;;;;;;;2094717;28;20195;-62
2022/03/31 02:25:56;;;;;;;16.57;13.63;;;;;;;;;;2099610;28;20197;-60
2022/03/31 02:26:57;;;;;;;17.83;14.03;;;;;;;;;;2100712;28;20276;-59
2022/03/31 02:27:57;;;;;;;20.17;14.47;;;;;;;;;;2099493;28;20162;-60
2022/03/31 02:28:57;;;;;;;21.00;15.10;;;;;;;;;;2101240;28;20208;-63
2022/03/31 02:29:58;;;;;;;17.83;13.37;;;;;;;;;;2099628;28;20182;-60
2022/03/31 02:30:58;;;;;;;19.80;13.97;;;;;;;;;;2101488;28;20175;-57
2022/03/31 02:31:59;;;;;;;18.40;12.70;;;;;;;;;;2101874;28;20180;-59
2022/03/31 02:32:59;;;;;;;23.80;14.30;;;;;;;;;;2105416;28;20167;-60
2022/03/31 02:33:59;;;;;;;21.20;14.53;;;;;;;;;;2100715;28;20269;-58
2022/03/31 02:35:00;;;;;;;19.30;14.37;;;;;;;;;;2101016;28;20203;-57
2022/03/31 02:36:00;;;;;;;18.13;13.93;;;;;;;;;;2096113;28;20182;-60
2022/03/31 02:37:02;;;;;;;16.33;13.07;;;;;;;;;;2094745;28;20179;-62
2022/03/31 02:38:02;;;;;;;21.03;13.57;;;;;;;;;;2098907;28;20186;-65
2022/03/31 02:39:02;;;;;;;19.30;13.77;;;;;;;;;;2082045;28;20172;-62
2022/03/31 02:40:03;;;;;;;18.00;12.53;;;;;;;;;;2081572;28;20180;-65
2022/03/31 02:41:05;;;;;;;18.13;13.40;;;;;;;;;;2098854;28;20203;-60
2022/03/31 02:42:05;;;;;;;13.63;12.17;;;;;;;;;;2097857;28;20265;-59
2022/03/31 02:43:05;;;;;;;19.17;13.80;;;;;;;;;;2087694;28;20198;-59
2022/03/31 02:44:06;;;;;;;17.20;12.97;;;;;;;;;;2075028;28;20196;-61
2022/03/31 02:45:07;;;;;;;18.00;13.13;;;;;;;;;;2086976;28;20199;-61
2022/03/31 02:46:08;;;;;;;19.10;12.87;;;;;;;;;;2098476;28;20187;-63
2022/03/31 02:47:09;;;;;;;19.23;12.83;;;;;;;;;;2099985;28;20190;-61
2022/03/31 02:48:09;;;;;;;15.17;12.97;;;;;;;;;;2096616;28;20243;-58
2022/03/31 02:49:10;;;;;;;16.47;12.50;;;;;;;;;;2101328;28;20205;-63
2022/03/31 02:50:11;;;;;;;15.13;12.93;;;;;;;;;;2096966;28;20171;-60
2022/03/31 02:51:11;;;;;;;16.80;13.27;;;;;;;;;;2081586;28;20210;-55
2022/03/31 02:52:11;;;;;;;16.93;12.63;;;;;;;;;;2080993;28;20660;-61
2022/03/31 02:55:49;;;;;;;17.67;12.53;;;;;;;;;;2098747;28;20162;-57
2022/03/31 02:56:49;;;;;;;15.20;12.07;;;;;;;;;;2098593;28;20678;-63
2022/03/31 02:57:51;;;;;;;17.07;12.03;;;;;;;;;;2094843;28;20584;-63
2022/03/31 02:58:51;;;;;;;20.23;12.87;;;;;;;;;;2090042;28;20214;-61
2022/03/31 02:59:51;;;;;;;17.27;12.77;;;;;;;;;;2088844;28;20184;-60
2022/03/31 03:00:52;;;;;;;20.67;12.13;;;;;;;;;;2093878;28;20667;-61
2022/03/31 03:01:52;;;;;;;18.43;12.60;;;;;;;;;;2098550;28;20596;-62
2022/03/31 03:02:53;;;;;;;13.83;11.97;;;;;;;;;;2088941;28;20308;-61
2022/03/31 03:03:54;;;;;;;17.80;12.80;;;;;;;;;;2088966;28;20163;-58
2022/03/31 03:04:55;;;;;;;19.20;13.43;;;;;;;;;;2084021;28;20208;-58
2022/03/31 03:05:55;;;;;;;16.17;12.60;;;;;;;;;;2088874;28;20179;-61
2022/03/31 03:06:56;;;;;;;17.70;12.27;;;;;;;;;;2097868;28;20171;-63
2022/03/31 03:07:57;;;;;;;15.13;12.27;;;;;;;;;;2081973;28;20174;-62
2022/03/31 03:08:57;;;;;;;15.17;12.07;;;;;;;;;;2085433;28;20183;-60
2022/03/31 03:09:58;;;;;;;16.80;11.80;;;;;;;;;;2098690;28;20171;-57
2022/03/31 03:10:58;;;;;;;15.80;11.53;;;;;;;;;;2094245;28;20224;-59
2022/03/31 03:11:58;;;;;;;14.33;11.93;;;;;;;;;;2098020;28;20567;-60
2022/03/31 03:12:59;;;;;;;18.07;12.47;;;;;;;;;;2093611;28;20478;-62
2022/03/31 03:13:59;;;;;;;14.93;12.40;;;;;;;;;;2097666;28;20232;-66
2022/03/31 03:14:59;;;;;;;20.80;13.33;;;;;;;;;;2098331;28;20687;-60
2022/03/31 03:16:01;;;;;;;16.30;12.67;;;;;;;;;;2096088;28;20181;-58
2022/03/31 03:17:02;;;;;;;17.20;12.40;;;;;;;;;;2096163;28;20186;-57
2022/03/31 03:18:02;;;;;;;14.37;11.40;;;;;;;;;;2097766;28;20167;-59
2022/03/31 03:19:03;;;;;;;16.97;12.53;;;;;;;;;;2098040;28;20780;-60
2022/03/31 03:20:03;;;;;;;15.60;12.07;;;;;;;;;;2095585;28;20175;-61
2022/03/31 03:21:04;;;;;;;17.83;12.90;;;;;;;;;;2084720;28;20179;-63
2022/03/31 03:22:04;;;;;;;13.73;11.57;;;;;;;;;;2088847;28;20183;-56
2022/03/31 03:23:05;;;;;;;16.50;11.57;;;;;;;;;;2088896;28;20191;-59
2022/03/31 03:24:05;;;;;;;12.83;10.90;;;;;;;;;;2090490;28;20214;-60
2022/03/31 03:25:06;;;;;;;17.53;11.50;;;;;;;;;;2093575;28;20189;-60
2022/03/31 03:26:07;;;;;;;15.50;12.60;;;;;;;;;;2097786;28;20175;-59
2022/03/31 03:27:07;;;;;;;15.27;11.87;;;;;;;;;;2097460;28;20262;-59
2022/03/31 03:28:08;;;;;;;12.80;10.70;;;;;;;;;;2096067;28;20163;-60
2022/03/31 03:29:08;;;;;;;13.60;11.17;;;;;;;;;;2096765;28;20203;-61
2022/03/31 03:30:09;;;;;;;16.47;11.33;;;;;;;;;;2098115;28;20167;-57
2022/03/31 03:31:09;;;;;;;12.67;11.30;;;;;;;;;;2094405;28;20207;-59
2022/03/31 03:32:10;;;;;;;14.83;11.53;;;;;;;;;;2093305;28;20266;-61
2022/03/31 03:33:10;;;;;;;17.93;12.23;;;;;;;;;;2092597;28;20203;-62
2022/03/31 03:34:10;;;;;;;14.70;11.00;;;;;;;;;;2094347;28;20289;-57
2022/03/31 03:35:11;;;;;;;17.53;11.73;;;;;;;;;;2097685;28;20243;-53
2022/03/31 03:36:14;;;;;;;15.27;11.07;;;;;;;;;;2098127;28;20607;-56
2022/03/31 03:37:14;;;;;;;13.30;11.10;;;;;;;;;;2097581;28;20181;-56
2022/03/31 03:38:15;;;;;;;19.33;11.50;;;;;;;;;;2088055;28;20648;-56
2022/03/31 03:39:15;;;;;;;16.47;10.83;;;;;;;;;;2089271;28;20223;-58
2022/03/31 03:40:15;;;;;;;16.50;11.17;;;;;;;;;;2097883;28;20177;-61
2022/03/31 03:41:16;;;;;;;18.03;11.00;;;;;;;;;;2088570;28;20179;-58
2022/03/31 03:42:16;;;;;;;12.67;10.43;;;;;;;;;;2082669;28;20664;-59
2022/03/31 03:43:16;;;;;;;12.40;11.03;;;;;;;;;;2088419;28;20284;-61
2022/03/31 03:44:17;;;;;;;15.23;11.50;;;;;;;;;;2097058;28;20205;-58
2022/03/31 03:45:17;;;;;;;11.37;10.10;;;;;;;;;;2097587;28;20207;-56
2022/03/31 03:46:17;;;;;;;14.00;11.43;;;;;;;;;;2097549;28;20231;-52
2022/03/31 03:47:17;;;;;;;13.20;10.80;;;;;;;;;;2094515;28;20182;-56
2022/03/31 03:48:18;;;;;;;16.33;10.97;;;;;;;;;;2086229;28;20180;-56
2022/03/31 03:49:18;;;;;;;14.33;10.50;;;;;;;;;;2087951;28;20175;-62
2022/03/31 03:50:18;;;;;;;13.07;10.70;;;;;;;;;;2086639;28;20180;-57
2022/03/31 03:51:19;;;;;;;11.63;10.33;;;;;;;;;;2092182;28;20263;-56
2022/03/31 03:52:19;;;;;;;15.93;11.20;;;;;;;;;;2103480;28;20158;-59
2022/03/31 03:53:19;;;;;;;13.50;10.90;;;;;;;;;;2089856;28;20215;-57
2022/03/31 03:54:20;;;;;;;13.83;11.43;;;;;;;;;;2088276;28;20692;-59
2022/03/31 03:55:21;;;;;;;17.07;11.33;;;;;;;;;;2097467;28;20213;-58
2022/03/31 03:56:22;;;;;;;16.17;10.97;;;;;;;;;;2094559;28;20639;-58
2022/03/31 03:57:23;;;;;;;13.67;10.83;;;;;;;;;;2097311;28;20635;-57
2022/03/31 03:58:23;;;;;;;14.23;11.03;;;;;;;;;;2097542;28;20175;-58
2022/03/31 03:59:24;;;;;;;14.37;11.87;;;;;;;;;;2088289;28;20403;-60
2022/03/31 04:00:25;;;;;;;14.33;10.57;;;;;;;;;;2088377;28;20709;-58
2022/03/31 04:01:26;;;;;;;14.63;10.30;;;;;;;;;;2088330;28;20167;-58
2022/03/31 04:02:26;;;;;;;17.77;11.47;;;;;;;;;;2073104;28;20662;-58
2022/03/31 04:03:26;;;;;;;13.60;10.60;;;;;;;;;;2078588;28;20180;-55
2022/03/31 04:04:27;;;;;;;15.73;11.03;;;;;;;;;;2087936;28;20224;-58
2022/03/31 04:05:27;;;;;;;15.87;11.13;;;;;;;;;;2097242;28;20685;-60
2022/03/31 04:06:28;;;;;;;12.10;10.60;;;;;;;;;;2097401;28;20547;-64
2022/03/31 04:07:28;;;;;;;13.00;10.40;;;;;;;;;;2091901;28;20187;-63
2022/03/31 04:08:28;;;;;;;15.00;11.07;;;;;;;;;;2096270;28;20179;-60
2022/03/31 04:09:29;;;;;;;26.40;12.93;;;;;;;;;;2097087;28;20182;-58
2022/03/31 04:10:29;;;;;;;44.30;15.80;;;;;;;;;;2097478;28;20274;-57
2022/03/31 04:11:29;;;;;;;14.53;10.27;;;;;;;;;;2091136;28;20542;-60
2022/03/31 04:12:29;;;;;;;11.80;10.40;;;;;;;;;;2096616;28;20230;-55
2022/03/31 04:13:30;;;;;;;11.70;9.77;;;;;;;;;;2096434;28;20175;-58
2022/03/31 04:14:30;;;;;;;13.00;10.83;;;;;;;;;;2096881;28;20486;-59
2022/03/31 04:15:30;;;;;;;14.07;10.17;;;;;;;;;;2097436;28;20557;-58
2022/03/31 04:16:30;;;;;;;13.57;10.93;;;;;;;;;;2097611;28;20250;-63
2022/03/31 04:17:31;;;;;;;13.70;11.07;;;;;;;;;;2088035;28;20207;-57
2022/03/31 04:18:32;;;;;;;12.83;10.00;;;;;;;;;;2079753;28;20165;-55
2022/03/31 04:19:32;;;;;;;13.33;10.53;;;;;;;;;;2071900;28;20208;-55
2022/03/31 04:20:32;;;;;;;12.20;10.47;;;;;;;;;;2079793;28;20696;-60
2022/03/31 04:21:32;;;;;;;16.33;11.27;;;;;;;;;;2088179;28;20167;-58
2022/03/31 04:22:33;;;;;;;15.40;11.30;;;;;;;;;;2096956;28;20175;-63
2022/03/31 04:23:34;;;;;;;13.33;10.77;;;;;;;;;;2091480;28;20179;-56
2022/03/31 04:24:34;;;;;;;15.87;9.80;;;;;;;;;;2091638;28;20683;-58
2022/03/31 04:25:34;;;;;;;11.63;10.43;;;;;;;;;;2096308;28;20206;-57
2022/03/31 04:26:35;;;;;;;12.47;10.13;;;;;;;;;;2097835;28;20171;-59
2022/03/31 04:27:36;;;;;;;13.30;10.77;;;;;;;;;;2087087;28;20180;-63
2022/03/31 04:28:36;;;;;;;13.07;10.37;;;;;;;;;;2088303;28;20210;-61
2022/03/31 04:29:37;;;;;;;19.57;10.63;;;;;;;;;;2088781;28;20217;-56
2022/03/31 04:30:37;;;;;;;16.93;11.03;;;;;;;;;;2088256;28;20174;-58
2022/03/31 04:31:37;;;;;;;13.90;11.53;;;;;;;;;;2091351;28;20175;-59
2022/03/31 04:32:38;;;;;;;16.67;10.80;;;;;;;;;;2087355;28;20218;-62
2022/03/31 04:33:38;;;;;;;15.07;10.73;;;;;;;;;;2098515;28;20163;-61
2022/03/31 04:34:38;;;;;;;14.10;10.93;;;;;;;;;;2089505;28;20310;-61
2022/03/31 04:35:39;;;;;;;16.00;11.30;;;;;;;;;;2088658;28;20648;-57
2022/03/31 04:36:39;;;;;;;12.73;10.80;;;;;;;;;;2088537;28;20579;-58
2022/03/31 04:37:39;;;;;;;15.00;10.20;;;;;;;;;;2081517;28;20373;-62
2022/03/31 04:38:40;;;;;;;16.77;10.67;;;;;;;;;;2089625;28;20628;-61
2022/03/31 04:39:40;;;;;;;10.60;9.57;;;;;;;;;;2098504;28;20236;-62
2022/03/31 04:40:40;;;;;;;16.07;10.67;;;;;;;;;;2099108;28;20174;-62
2022/03/31 04:41:41;;;;;;;15.77;11.60;;;;;;;;;;2099885;28;20177;-61
2022/03/31 04:42:42;;;;;;;13.97;10.60;;;;;;;;;;2090939;28;20195;-60
2022/03/31 04:43:42;;;;;;;12.70;10.77;;;;;;;;;;2077624;28;20211;-57
2022/03/31 04:44:43;;;;;;;15.20;10.77;;;;;;;;;;2090777;28;20236;-60
2022/03/31 04:45:43;;;;;;;13.87;11.33;;;;;;;;;;2090530;28;20167;-58
2022/03/31 04:46:43;;;;;;;15.97;9.87;;;;;;;;;;2095168;28;20198;-55
2022/03/31 04:47:43;;;;;;;16.17;11.47;;;;;;;;;;2106164;28;20682;-57
2022/03/31 04:48:44;;;;;;;13.57;10.20;;;;;;;;;;2095091;28;20184;-60
2022/03/31 04:49:44;;;;;;;14.70;11.67;;;;;;;;;;2104656;28;20171;-59
2022/03/31 04:50:45;;;;;;;15.97;11.43;;;;;;;;;;2095133;28;20167;-58
2022/03/31 04:51:45;;;;;;;12.50;11.30;;;;;;;;;;2089958;28;20172;-58
2022/03/31 04:52:45;;;;;;;17.40;11.50;;;;;;;;;;2088585;28;20270;-58
2022/03/31 04:53:45;;;;;;;13.97;11.37;;;;;;;;;;2091871;28;20176;-57
2022/03/31 04:54:46;;;;;;;15.73;12.00;;;;;;;;;;2090157;28;20214;-62
2022/03/31 04:55:47;;;;;;;19.20;11.77;;;;;;;;;;2090460;28;20191;-55
2022/03/31 04:56:47;;;;;;;12.57;10.77;;;;;;;;;;2098705;28;20240;-60
2022/03/31 04:57:47;;;;;;;14.83;10.80;;;;;;;;;;2099083;28;20164;-58
2022/03/31 04:58:48;;;;;;;14.53;11.13;;;;;;;;;;2099472;28;20187;-57
2022/03/31 04:59:48;;;;;;;13.77;11.23;;;;;;;;;;2096984;28;20181;-59
2022/03/31 05:00:48;;;;;;;15.63;11.53;;;;;;;;;;2091269;28;20199;-54
2022/03/31 05:01:48;;;;;;;15.67;11.37;;;;;;;;;;2091086;28;20558;-59
2022/03/31 05:02:49;;;;;;;15.83;11.30;;;;;;;;;;2090971;28;20226;-56
2022/03/31 05:03:50;;;;;;;12.33;10.80;;;;;;;;;;2090942;28;20176;-59
2022/03/31 05:04:50;;;;;;;12.63;11.03;;;;;;;;;;2090824;28;20186;-57
2022/03/31 05:05:51;;;;;;;13.70;10.73;;;;;;;;;;2090889;28;20255;-60
2022/03/31 05:06:51;;;;;;;15.47;11.50;;;;;;;;;;2091159;28;20164;-56
2022/03/31 05:07:51;;;;;;;20.40;12.37;;;;;;;;;;2091051;28;20220;-60
2022/03/31 05:08:52;;;;;;;14.17;12.10;;;;;;;;;;2098472;28;20183;-60
2022/03/31 05:09:53;;;;;;;14.37;11.27;;;;;;;;;;2090465;28;20171;-57
2022/03/31 05:10:53;;;;;;;13.47;10.63;;;;;;;;;;2090602;28;20235;-58
2022/03/31 05:11:55;;;;;;;14.83;10.50;;;;;;;;;;2099305;28;20255;-57
2022/03/31 05:12:55;;;;;;;12.90;10.90;;;;;;;;;;2099468;28;20175;-59
2022/03/31 05:13:55;;;;;;;13.00;11.67;;;;;;;;;;2090326;28;20199;-54
2022/03/31 05:14:55;;;;;;;12.20;10.40;;;;;;;;;;2088701;28;20222;-59
2022/03/31 05:15:56;;;;;;;13.37;11.53;;;;;;;;;;2099348;28;20198;-57
2022/03/31 05:16:56;;;;;;;13.97;11.37;;;;;;;;;;2088894;28;20183;-57
2022/03/31 05:17:56;;;;;;;14.07;11.20;;;;;;;;;;2090244;28;20241;-60
2022/03/31 05:18:56;;;;;;;15.83;10.93;;;;;;;;;;2098710;28;20167;-56
2022/03/31 05:19:57;;;;;;;11.33;10.17;;;;;;;;;;2099952;28;20220;-57
2022/03/31 05:20:57;;;;;;;13.77;11.33;;;;;;;;;;2100007;28;20635;-57
2022/03/31 05:21:57;;;;;;;12.47;11.00;;;;;;;;;;2090380;28;20225;-58
2022/03/31 05:22:57;;;;;;;15.37;11.43;;;;;;;;;;2089929;28;20458;-57
2022/03/31 05:23:58;;;;;;;12.87;11.57;;;;;;;;;;2098026;28;20215;-61
2022/03/31 05:24:58;;;;;;;13.83;12.37;;;;;;;;;;2098458;28;20663;-56
2022/03/31 05:25:58;;;;;;;14.73;11.60;;;;;;;;;;2099123;28;20171;-53
2022/03/31 05:26:58;;;;;;;14.33;11.33;;;;;;;;;;2096461;28;20162;-57
2022/03/31 05:28:00;;;;;;;15.17;11.40;;;;;;;;;;2089661;28;20664;-62
2022/03/31 05:29:00;;;;;;;14.47;12.20;;;;;;;;;;2089740;28;20163;-59
2022/03/31 05:30:00;;;;;;;14.47;11.53;;;;;;;;;;2089994;28;20180;-54
2022/03/31 05:31:01;;;;;;;15.00;12.27;;;;;;;;;;2095982;28;20171;-59
2022/03/31 05:32:01;;;;;;;13.63;11.33;;;;;;;;;;2098220;28;20226;-62
2022/03/31 05:33:02;;;;;;;15.07;12.03;;;;;;;;;;2097315;28;20203;-60
2022/03/31 05:34:02;;;;;;;12.47;11.17;;;;;;;;;;2098505;28;20166;-56
2022/03/31 05:35:03;;;;;;;16.30;12.37;;;;;;;;;;2093851;28;20679;-57
2022/03/31 05:36:04;;;;;;;15.97;12.23;;;;;;;;;;2082132;28;20184;-59
2022/03/31 05:37:05;;;;;;;17.03;12.63;;;;;;;;;;2084304;28;20179;-56
2022/03/31 05:38:06;;;;;;;13.03;11.40;;;;;;;;;;2094428;28;20221;-60
2022/03/31 05:39:07;;;;;;;14.97;12.03;;;;;;;;;;2089013;28;20221;-60
2022/03/31 05:40:09;;;;;;;15.00;11.97;;;;;;;;;;2090134;28;20600;-56
2022/03/31 05:41:09;;;;;;;13.40;12.00;;;;;;;;;;2097663;28;20525;-55
2022/03/31 05:42:09;;;;;;;17.53;12.73;;;;;;;;;;2096552;28;20217;-59
2022/03/31 05:43:10;;;;;;;15.90;12.87;;;;;;;;;;2098464;28;20734;-58
2022/03/31 05:44:10;;;;;;;15.30;12.03;;;;;;;;;;2098706;28;20190;-55
2022/03/31 05:45:12;;;;;;;17.03;12.73;;;;;;;;;;2098250;28;20198;-58
2022/03/31 05:46:12;;;;;;;14.90;12.37;;;;;;;;;;2099075;28;20179;-67
2022/03/31 05:47:12;;;;;;;14.57;13.07;;;;;;;;;;2094608;28;20187;-55
2022/03/31 05:48:13;;;;;;;15.77;12.87;;;;;;;;;;2088895;28;20172;-57
2022/03/31 05:49:13;;;;;;;20.57;13.60;;;;;;;;;;2089602;28;20224;-55
2022/03/31 05:50:14;;;;;;;17.00;12.83;;;;;;;;;;2098852;28;20175;-58
2022/03/31 05:51:14;;;;;;;21.30;15.37;;;;;;;;;;2093321;28;20185;-57
2022/03/31 05:52:15;;;;;;;18.67;12.90;;;;;;;;;;2096929;28;20182;-64
2022/03/31 05:53:15;;;;;;;15.47;12.33;;;;;;;;;;2096731;28;20252;-57
2022/03/31 05:54:15;;;;;;;14.63;12.60;;;;;;;;;;2087708;28;20219;-58
2022/03/31 05:55:17;;;;;;;15.73;13.13;;;;;;;;;;2077898;28;20644;-58